createdAt,value
2022-08-16T00:00:03.568Z,9.761709
2022-08-16T00:00:55.526Z,9.761709
2022-08-16T00:01:54.539Z,9.761709
2022-08-16T00:02:54.495Z,9.761709
2022-08-16T00:03:54.488Z,9.761709
2022-08-16T00:04:54.483Z,9.761709
2022-08-16T00:05:57.861Z,9.761709
2022-08-16T00:06:54.463Z,9.761709
2022-08-16T00:07:57.021Z,9.761709
2022-08-16T00:08:54.434Z,9.761709
2022-08-16T00:09:54.423Z,9.761709
2022-08-16T00:10:54.413Z,9.761709
2022-08-16T00:11:55.403Z,9.761709
2022-08-16T00:12:54.636Z,9.761709
2022-08-16T00:13:55.631Z,9.761709
2022-08-16T00:14:56.755Z,9.761709
2022-08-16T00:15:54.455Z,9.761709
2022-08-16T00:17:00.657Z,9.761709
2022-08-16T00:17:57.199Z,9.761709
2022-08-16T00:18:54.329Z,9.761709
2022-08-16T00:19:55.029Z,9.761709
2022-08-16T00:20:54.321Z,9.761709
2022-08-16T00:21:56.071Z,9.761709
2022-08-16T00:22:54.279Z,9.761709
2022-08-16T00:23:54.273Z,9.761709
2022-08-16T00:24:54.620Z,9.761709
2022-08-16T00:26:35.308Z,9.761709
2022-08-16T00:26:55.278Z,9.761709
2022-08-16T00:27:54.218Z,9.761709
2022-08-16T00:28:54.591Z,9.761709
2022-08-16T00:30:08.410Z,9.761709
2022-08-16T00:30:55.233Z,9.761709
2022-08-16T00:32:01.229Z,9.761709
2022-08-16T00:32:57.042Z,9.761709
2022-08-16T00:33:54.202Z,9.761709
2022-08-16T00:34:54.328Z,9.761709
2022-08-16T00:35:54.182Z,9.761709
2022-08-16T00:36:55.720Z,9.761709
2022-08-16T00:37:58.690Z,9.761709
2022-08-16T00:38:56.196Z,9.763086
2022-08-16T00:39:57.261Z,9.762865
2022-08-16T00:40:54.169Z,9.762708
2022-08-16T00:41:54.120Z,9.762708
2022-08-16T00:42:54.807Z,9.762708
2022-08-16T00:43:54.123Z,9.762708
2022-08-16T00:44:54.107Z,9.762708
2022-08-16T00:45:57.852Z,9.762708
2022-08-16T00:47:02.419Z,9.762776
2022-08-16T00:47:55.078Z,9.762710
2022-08-16T00:48:54.033Z,9.762715
2022-08-16T00:49:56.648Z,9.762731
2022-08-16T00:50:55.500Z,9.762728
2022-08-16T00:51:55.635Z,9.762802
2022-08-16T00:52:54.311Z,9.762836
2022-08-16T00:53:54.001Z,9.762896
2022-08-16T00:54:53.981Z,9.762877
2022-08-16T00:55:53.985Z,9.762854
2022-08-16T00:56:58.592Z,9.762800
2022-08-16T00:57:59.545Z,9.762823
2022-08-16T00:58:54.954Z,9.762860
2022-08-16T00:59:58.764Z,9.762924
2022-08-16T01:00:54.982Z,9.762842
2022-08-16T01:01:53.935Z,9.762573
2022-08-16T01:02:53.918Z,9.762291
2022-08-16T01:03:53.893Z,9.762417
2022-08-16T01:05:09.045Z,9.762792
2022-08-16T01:05:54.906Z,9.762857
2022-08-16T01:07:01.760Z,9.762794
2022-08-16T01:07:54.857Z,9.762738
2022-08-16T01:08:53.864Z,9.762762
2022-08-16T01:09:53.843Z,9.762793
2022-08-16T01:10:53.828Z,9.762765
2022-08-16T01:11:55.359Z,9.762677
2022-08-16T01:12:53.816Z,9.762789
2022-08-16T01:13:53.802Z,9.762717
2022-08-16T01:14:53.784Z,9.762693
2022-08-16T01:15:53.815Z,9.762749
2022-08-16T01:16:53.790Z,9.762715
2022-08-16T01:17:55.759Z,9.762715
2022-08-16T01:18:53.752Z,9.762826
2022-08-16T01:19:57.117Z,9.762868
2022-08-16T01:20:53.739Z,9.762841
2022-08-16T01:21:53.716Z,9.762854
2022-08-16T01:22:53.760Z,9.762730
2022-08-16T01:24:00.871Z,9.762825
2022-08-16T01:24:55.669Z,9.762791
2022-08-16T01:26:00.407Z,9.762831
2022-08-16T01:26:54.705Z,9.762827
2022-08-16T01:27:53.657Z,9.762853
2022-08-16T01:28:53.644Z,9.762312
2022-08-16T01:29:57.931Z,9.762464
2022-08-16T01:30:54.632Z,9.762705
2022-08-16T01:31:53.626Z,9.763083
2022-08-16T01:33:02.173Z,9.762932
2022-08-16T01:33:55.582Z,9.762707
2022-08-16T01:34:53.842Z,9.762649
2022-08-16T01:35:53.591Z,9.762723
2022-08-16T01:36:56.891Z,9.762796
2022-08-16T01:37:54.238Z,9.762733
2022-08-16T01:38:57.413Z,9.762787
2022-08-16T01:39:53.558Z,9.762782
2022-08-16T01:40:53.544Z,9.762707
2022-08-16T01:41:53.506Z,9.762642
2022-08-16T01:42:53.924Z,9.762823
2022-08-16T01:43:54.474Z,9.762870
2022-08-16T01:44:53.502Z,9.762747
2022-08-16T01:45:57.497Z,9.762753
2022-08-16T01:46:53.448Z,9.762881
2022-08-16T01:47:53.475Z,9.762721
2022-08-16T01:48:53.451Z,9.762729
2022-08-16T01:50:43.556Z,9.761962
2022-08-16T01:51:09.751Z,9.761654
2022-08-16T01:51:54.425Z,9.762301
2022-08-16T01:52:53.453Z,9.763040
2022-08-16T01:53:54.585Z,9.762753
2022-08-16T01:54:53.542Z,9.762807
2022-08-16T01:55:53.872Z,9.762643
2022-08-16T01:56:53.395Z,9.762720
2022-08-16T01:57:56.470Z,9.762798
2022-08-16T01:58:53.355Z,9.762719
2022-08-16T01:59:54.792Z,9.762820
2022-08-16T02:00:53.327Z,9.762972
2022-08-16T02:01:59.884Z,9.762937
2022-08-16T02:02:54.330Z,9.762537
2022-08-16T02:03:53.295Z,9.762197
2022-08-16T02:04:54.730Z,9.762197
2022-08-16T02:05:53.267Z,9.762131
2022-08-16T02:06:53.297Z,9.762724
2022-08-16T02:07:53.486Z,9.762336
2022-08-16T02:08:53.268Z,9.762336
2022-08-16T02:09:57.191Z,9.762336
2022-08-16T02:10:54.221Z,9.762336
2022-08-16T02:11:53.691Z,9.762336
2022-08-16T02:12:59.839Z,9.762336
2022-08-16T02:13:54.859Z,9.762336
2022-08-16T02:14:53.222Z,9.762336
2022-08-16T02:15:53.193Z,9.762336
2022-08-16T02:16:53.164Z,9.762336
2022-08-16T02:17:53.187Z,9.762336
2022-08-16T02:18:53.156Z,9.762662
2022-08-16T02:19:58.997Z,9.762813
2022-08-16T02:20:54.139Z,9.763176
2022-08-16T02:22:08.416Z,9.762868
2022-08-16T02:22:55.283Z,9.762337
2022-08-16T02:23:55.648Z,9.762512
2022-08-16T02:24:53.099Z,9.762863
2022-08-16T02:25:54.667Z,9.762733
2022-08-16T02:26:54.060Z,9.762766
2022-08-16T02:27:53.054Z,9.762887
2022-08-16T02:28:53.040Z,9.762351
2022-08-16T02:29:53.057Z,9.762504
2022-08-16T02:30:54.052Z,9.762866
2022-08-16T02:32:03.212Z,9.762915
2022-08-16T02:32:54.032Z,9.762768
2022-08-16T02:33:52.986Z,9.762702
2022-08-16T02:34:56.425Z,9.762706
2022-08-16T02:35:58.150Z,9.762175
2022-08-16T02:36:53.964Z,9.762046
2022-08-16T02:37:53.450Z,9.762044
2022-08-16T02:38:52.974Z,9.761729
2022-08-16T02:39:54.047Z,9.761969
2022-08-16T02:40:54.399Z,9.761891
2022-08-16T02:41:53.205Z,9.762138
2022-08-16T02:42:53.098Z,9.762178
2022-08-16T02:43:52.892Z,9.762178
2022-08-16T02:44:52.881Z,9.761708
2022-08-16T02:45:52.879Z,9.762142
2022-08-16T02:46:53.887Z,9.762494
2022-08-16T02:48:00.468Z,9.762594
2022-08-16T02:48:53.843Z,9.762815
2022-08-16T02:49:59.312Z,9.762849
2022-08-16T02:51:06.708Z,9.762901
2022-08-16T02:51:53.833Z,9.762835
2022-08-16T02:52:52.802Z,9.762655
2022-08-16T02:53:52.876Z,9.762777
2022-08-16T02:54:55.435Z,9.763062
2022-08-16T02:55:52.773Z,9.762729
2022-08-16T02:56:52.769Z,9.762721
2022-08-16T02:57:53.886Z,9.762720
2022-08-16T02:58:52.750Z,9.762826
2022-08-16T02:59:52.728Z,9.762691
2022-08-16T03:00:52.775Z,9.762797
2022-08-16T03:01:52.730Z,9.762681
2022-08-16T03:02:55.753Z,9.762679
2022-08-16T03:04:29.278Z,9.762511
2022-08-16T03:04:54.130Z,9.762775
2022-08-16T03:05:53.222Z,9.762858
2022-08-16T03:06:56.622Z,9.762685
2022-08-16T03:07:52.653Z,9.762857
2022-08-16T03:08:53.400Z,9.762527
2022-08-16T03:09:52.642Z,9.762791
2022-08-16T03:10:52.638Z,9.762795
2022-08-16T03:11:52.661Z,9.762822
2022-08-16T03:12:55.493Z,9.762707
2022-08-16T03:13:53.029Z,9.762535
2022-08-16T03:14:52.576Z,9.762800
2022-08-16T03:15:52.581Z,9.762628
2022-08-16T03:16:59.392Z,9.762601
2022-08-16T03:17:54.249Z,9.762632
2022-08-16T03:18:52.568Z,9.762586
2022-08-16T03:20:00.082Z,9.762742
2022-08-16T03:20:55.658Z,9.762972
2022-08-16T03:21:52.526Z,9.762367
2022-08-16T03:22:52.501Z,9.761931
2022-08-16T03:23:52.502Z,9.762593
2022-08-16T03:24:52.494Z,9.762632
2022-08-16T03:25:52.512Z,9.762673
2022-08-16T03:26:52.469Z,9.762723
2022-08-16T03:27:52.463Z,9.763267
2022-08-16T03:28:52.473Z,9.762898
2022-08-16T03:29:54.302Z,9.762075
2022-08-16T03:30:52.444Z,9.762575
2022-08-16T03:31:52.552Z,9.762794
2022-08-16T03:32:52.483Z,9.762952
2022-08-16T03:33:52.403Z,9.762589
2022-08-16T03:34:52.372Z,9.763697
2022-08-16T03:35:56.963Z,9.763028
2022-08-16T03:36:53.347Z,9.762826
2022-08-16T03:38:02.620Z,9.762798
2022-08-16T03:38:53.392Z,9.762728
2022-08-16T03:39:56.660Z,9.762847
2022-08-16T03:40:53.330Z,9.762841
2022-08-16T03:41:59.937Z,9.762868
2022-08-16T03:43:00.396Z,9.762965
2022-08-16T03:43:53.305Z,9.762764
2022-08-16T03:45:03.511Z,9.762807
2022-08-16T03:45:53.570Z,9.762822
2022-08-16T03:46:52.281Z,9.762775
2022-08-16T03:47:58.523Z,9.762764
2022-08-16T03:48:53.264Z,9.762684
2022-08-16T03:49:52.485Z,9.762418
2022-08-16T03:51:00.109Z,9.762570
2022-08-16T03:51:53.208Z,9.763598
2022-08-16T03:52:53.869Z,9.762936
2022-08-16T03:54:00.676Z,9.757607
2022-08-16T03:54:59.162Z,9.743325
2022-08-16T03:55:53.183Z,9.743325
2022-08-16T03:56:57.926Z,9.763016
2022-08-16T03:57:53.174Z,9.762607
2022-08-16T03:58:52.645Z,9.762696
2022-08-16T03:59:52.141Z,9.762736
2022-08-16T04:00:56.926Z,9.762740
2022-08-16T04:01:53.681Z,9.762586
2022-08-16T04:02:52.100Z,9.762709
2022-08-16T04:03:52.733Z,9.762816
2022-08-16T04:04:52.112Z,9.762816
2022-08-16T04:05:54.172Z,9.762816
2022-08-16T04:06:52.076Z,9.762618
2022-08-16T04:07:52.063Z,9.762697
2022-08-16T04:08:52.055Z,9.762729
2022-08-16T04:09:52.032Z,9.762654
2022-08-16T04:10:52.025Z,9.762799
2022-08-16T04:11:52.024Z,9.762817
2022-08-16T04:12:54.314Z,9.762665
2022-08-16T04:14:00.333Z,9.762437
2022-08-16T04:14:52.989Z,9.762615
2022-08-16T04:15:52.874Z,9.762887
2022-08-16T04:16:51.963Z,9.762628
2022-08-16T04:17:51.972Z,9.762734
2022-08-16T04:18:51.963Z,9.762737
2022-08-16T04:19:54.964Z,9.762679
2022-08-16T04:20:52.947Z,9.762759
2022-08-16T04:21:51.940Z,9.762948
2022-08-16T04:22:51.927Z,9.762919
2022-08-16T04:23:51.893Z,9.761848
2022-08-16T04:24:55.290Z,9.757147
2022-08-16T04:25:52.917Z,9.757147
2022-08-16T04:26:51.845Z,9.757147
2022-08-16T04:27:55.624Z,9.682475
2022-08-16T04:29:14.624Z,9.682475
2022-08-16T04:29:52.853Z,9.682475
2022-08-16T04:30:51.824Z,9.682475
2022-08-16T04:31:55.579Z,9.682475
2022-08-16T04:32:52.804Z,9.682475
2022-08-16T04:33:51.793Z,9.682475
2022-08-16T04:34:51.800Z,9.682475
2022-08-16T04:35:51.798Z,9.682475
2022-08-16T04:36:51.763Z,9.682475
2022-08-16T04:37:53.876Z,9.682475
2022-08-16T04:38:52.413Z,9.682475
2022-08-16T04:39:55.582Z,9.762732
2022-08-16T04:40:51.731Z,9.762655
2022-08-16T04:41:56.898Z,9.762740
2022-08-16T04:42:52.836Z,9.762644
2022-08-16T04:43:51.723Z,9.762794
2022-08-16T04:44:54.448Z,9.762902
2022-08-16T04:46:00.361Z,9.762799
2022-08-16T04:47:03.122Z,9.762748
2022-08-16T04:47:56.163Z,9.762771
2022-08-16T04:48:51.673Z,9.762784
2022-08-16T04:49:52.282Z,9.762589
2022-08-16T04:50:51.623Z,9.762605
2022-08-16T04:51:53.697Z,9.762682
2022-08-16T04:52:51.626Z,9.762760
2022-08-16T04:53:51.944Z,9.762847
2022-08-16T04:54:51.598Z,9.762766
2022-08-16T04:55:53.489Z,9.762763
2022-08-16T04:56:51.565Z,9.762811
2022-08-16T04:57:53.249Z,9.762817
2022-08-16T04:58:51.558Z,9.762762
2022-08-16T04:59:54.312Z,9.762716
2022-08-16T05:00:51.524Z,9.762755
2022-08-16T05:01:58.087Z,9.762582
2022-08-16T05:02:55.654Z,9.763198
2022-08-16T05:04:00.752Z,9.762899
2022-08-16T05:04:52.510Z,9.762770
2022-08-16T05:05:59.007Z,9.762598
2022-08-16T05:06:52.472Z,9.762673
2022-08-16T05:07:58.511Z,9.762831
2022-08-16T05:08:52.463Z,9.762815
2022-08-16T05:09:51.455Z,9.762766
2022-08-16T05:10:51.418Z,9.762942
2022-08-16T05:11:51.415Z,9.762847
2022-08-16T05:12:51.403Z,9.762774
2022-08-16T05:13:51.780Z,9.762632
2022-08-16T05:15:01.832Z,9.762626
2022-08-16T05:15:52.390Z,9.762824
2022-08-16T05:16:52.118Z,9.762858
2022-08-16T05:17:58.424Z,9.762613
2022-08-16T05:18:52.356Z,9.762802
2022-08-16T05:19:57.314Z,9.762705
2022-08-16T05:20:54.216Z,9.762692
2022-08-16T05:21:52.297Z,9.762772
2022-08-16T05:22:51.300Z,9.762833
2022-08-16T05:23:55.414Z,9.762795
2022-08-16T05:24:54.923Z,9.762794
2022-08-16T05:25:51.316Z,9.762600
2022-08-16T05:26:51.772Z,9.762840
2022-08-16T05:27:51.254Z,9.763086
2022-08-16T05:28:55.483Z,9.763002
2022-08-16T05:29:57.642Z,9.762992
2022-08-16T05:30:52.236Z,9.762698
2022-08-16T05:31:53.220Z,9.763172
2022-08-16T05:32:51.493Z,9.763298
2022-08-16T05:33:53.589Z,9.763503
2022-08-16T05:34:51.191Z,9.764454
2022-08-16T05:35:54.617Z,9.770204
2022-08-16T05:36:51.531Z,9.763450
2022-08-16T05:37:51.177Z,9.771682
2022-08-16T05:38:51.163Z,9.771682
2022-08-16T05:39:51.176Z,9.814568
2022-08-16T05:40:57.234Z,9.808199
2022-08-16T05:41:52.215Z,9.808199
2022-08-16T05:42:51.351Z,9.808199
2022-08-16T05:43:51.099Z,9.808199
2022-08-16T05:44:52.106Z,9.762521
2022-08-16T05:45:51.064Z,9.762552
2022-08-16T05:46:51.062Z,9.762747
2022-08-16T05:48:00.374Z,9.762747
2022-08-16T05:48:54.972Z,9.762527
2022-08-16T05:49:52.059Z,9.762540
2022-08-16T05:50:52.985Z,9.762574
2022-08-16T05:51:51.016Z,9.762529
2022-08-16T05:52:51.009Z,9.762571
2022-08-16T05:53:51.021Z,9.762752
2022-08-16T05:55:01.634Z,9.762420
2022-08-16T05:55:51.968Z,9.762442
2022-08-16T05:56:50.952Z,9.762598
2022-08-16T05:57:52.641Z,9.762478
2022-08-16T05:58:50.994Z,9.762507
2022-08-16T05:59:59.851Z,9.762515
2022-08-16T06:00:51.978Z,9.762469
2022-08-16T06:01:50.974Z,9.762334
2022-08-16T06:02:50.947Z,9.762528
2022-08-16T06:03:50.922Z,9.762279
2022-08-16T06:04:50.908Z,9.762461
2022-08-16T06:05:50.894Z,9.762462
2022-08-16T06:06:56.498Z,9.762515
2022-08-16T06:07:58.208Z,9.762503
2022-08-16T06:08:51.832Z,9.762454
2022-08-16T06:09:50.843Z,9.762529
2022-08-16T06:11:07.693Z,9.762654
2022-08-16T06:11:51.830Z,9.762762
2022-08-16T06:12:53.815Z,9.762719
2022-08-16T06:13:52.803Z,9.762805
2022-08-16T06:14:51.390Z,9.762661
2022-08-16T06:15:50.816Z,9.762793
2022-08-16T06:16:51.167Z,9.762782
2022-08-16T06:17:51.804Z,9.762753
2022-08-16T06:18:50.749Z,9.762787
2022-08-16T06:19:51.231Z,9.762612
2022-08-16T06:20:55.229Z,9.762591
2022-08-16T06:21:54.804Z,9.762671
2022-08-16T06:23:02.816Z,9.762790
2022-08-16T06:23:54.383Z,9.762760
2022-08-16T06:24:53.902Z,9.762881
2022-08-16T06:25:52.226Z,9.762892
2022-08-16T06:26:57.866Z,9.762957
2022-08-16T06:27:57.490Z,9.763042
2022-08-16T06:28:52.511Z,9.763551
2022-08-16T06:29:50.660Z,9.763040
2022-08-16T06:30:50.659Z,9.762673
2022-08-16T06:31:50.638Z,9.762372
2022-08-16T06:32:50.865Z,9.762317
2022-08-16T06:33:51.790Z,9.762645
2022-08-16T06:34:55.803Z,9.762772
2022-08-16T06:35:55.264Z,9.762920
2022-08-16T06:36:51.574Z,9.762723
2022-08-16T06:37:52.439Z,9.762817
2022-08-16T06:38:56.084Z,9.762898
2022-08-16T06:39:51.597Z,9.762768
2022-08-16T06:40:50.570Z,9.762151
2022-08-16T06:41:50.536Z,9.762475
2022-08-16T06:42:55.294Z,9.762630
2022-08-16T06:43:52.504Z,9.762396
2022-08-16T06:44:50.500Z,9.762548
2022-08-16T06:45:50.519Z,9.762321
2022-08-16T06:46:50.883Z,9.762704
2022-08-16T06:47:54.360Z,9.761459
2022-08-16T06:48:51.638Z,9.762332
2022-08-16T06:49:53.910Z,9.762590
2022-08-16T06:50:50.457Z,9.762940
2022-08-16T06:51:50.428Z,9.763081
2022-08-16T06:52:57.766Z,9.763081
2022-08-16T06:53:52.808Z,9.746261
2022-08-16T06:54:50.407Z,9.727697
2022-08-16T06:55:53.774Z,9.721535
2022-08-16T06:56:52.420Z,9.721535
2022-08-16T06:57:50.378Z,9.721535
2022-08-16T06:58:50.395Z,9.762455
2022-08-16T06:59:58.210Z,9.762614
2022-08-16T07:00:51.435Z,9.762665
2022-08-16T07:01:54.028Z,9.762591
2022-08-16T07:02:51.310Z,9.762606
2022-08-16T07:03:55.938Z,9.762800
2022-08-16T07:04:52.761Z,9.763128
2022-08-16T07:05:50.314Z,9.763128
2022-08-16T07:06:50.264Z,9.762471
2022-08-16T07:07:51.094Z,9.762705
2022-08-16T07:08:50.260Z,9.762775
2022-08-16T07:09:51.263Z,9.762838
2022-08-16T07:10:50.247Z,9.762850
2022-08-16T07:11:52.331Z,9.762784
2022-08-16T07:13:04.458Z,9.762721
2022-08-16T07:14:00.661Z,9.762683
2022-08-16T07:14:52.167Z,9.762961
2022-08-16T07:15:51.143Z,9.762751
2022-08-16T07:16:50.194Z,9.762775
2022-08-16T07:17:50.191Z,9.762740
2022-08-16T07:18:58.151Z,9.762894
2022-08-16T07:20:03.012Z,9.763049
2022-08-16T07:20:51.189Z,9.762816
2022-08-16T07:21:59.513Z,9.762785
2022-08-16T07:22:53.090Z,9.763196
2022-08-16T07:23:51.117Z,9.762811
2022-08-16T07:24:51.114Z,9.762648
2022-08-16T07:25:50.110Z,9.762407
2022-08-16T07:26:50.075Z,9.762702
2022-08-16T07:27:50.055Z,9.762852
2022-08-16T07:28:50.043Z,9.762791
2022-08-16T07:29:50.054Z,9.762864
2022-08-16T07:30:51.064Z,9.763284
2022-08-16T07:31:50.035Z,9.763421
2022-08-16T07:32:51.746Z,9.763388
2022-08-16T07:33:53.376Z,9.762761
2022-08-16T07:34:49.999Z,9.762809
2022-08-16T07:35:50.085Z,9.762494
2022-08-16T07:36:58.111Z,9.762656
2022-08-16T07:37:50.981Z,9.762690
2022-08-16T07:38:50.149Z,9.762754
2022-08-16T07:39:49.967Z,9.762617
2022-08-16T07:40:59.716Z,9.762592
2022-08-16T07:41:51.929Z,9.762707
2022-08-16T07:42:50.189Z,9.762706
2022-08-16T07:43:49.895Z,9.762496
2022-08-16T07:44:50.726Z,9.762570
2022-08-16T07:45:53.125Z,9.762660
2022-08-16T07:46:55.614Z,9.762409
2022-08-16T07:47:51.219Z,9.762376
2022-08-16T07:48:49.869Z,9.762639
2022-08-16T07:49:57.750Z,9.762614
2022-08-16T07:50:57.384Z,9.762959
2022-08-16T07:51:55.908Z,9.763772
2022-08-16T07:52:50.996Z,9.762790
2022-08-16T07:54:02.175Z,9.762424
2022-08-16T07:54:53.276Z,9.762109
2022-08-16T07:55:49.783Z,9.762186
2022-08-16T07:56:49.793Z,9.762510
2022-08-16T07:58:00.706Z,9.762510
2022-08-16T07:58:55.437Z,9.762781
2022-08-16T07:59:50.754Z,9.762511
2022-08-16T08:00:49.799Z,9.762531
2022-08-16T08:01:49.759Z,9.762512
2022-08-16T08:02:52.174Z,9.762499
2022-08-16T08:03:49.699Z,9.762270
2022-08-16T08:04:49.735Z,9.762174
2022-08-16T08:05:49.698Z,9.762430
2022-08-16T08:06:50.915Z,9.762850
2022-08-16T08:07:49.664Z,9.762729
2022-08-16T08:08:52.590Z,9.762686
2022-08-16T08:09:50.654Z,9.763146
2022-08-16T08:10:49.645Z,9.763155
2022-08-16T08:12:01.189Z,9.763155
2022-08-16T08:12:51.076Z,9.763155
2022-08-16T08:13:50.710Z,9.763155
2022-08-16T08:14:49.656Z,9.763155
2022-08-16T08:15:52.427Z,9.763155
2022-08-16T08:16:49.590Z,9.763155
2022-08-16T08:17:49.591Z,9.763155
2022-08-16T08:18:50.198Z,9.761845
2022-08-16T08:19:53.167Z,9.762046
2022-08-16T08:20:58.913Z,9.762451
2022-08-16T08:22:01.327Z,9.762818
2022-08-16T08:22:50.540Z,9.762683
2022-08-16T08:23:49.545Z,9.762917
2022-08-16T08:24:49.514Z,9.763205
2022-08-16T08:25:53.604Z,9.763118
2022-08-16T08:26:50.716Z,9.763423
2022-08-16T08:27:49.483Z,9.763520
2022-08-16T08:28:50.500Z,9.763391
2022-08-16T08:30:49.016Z,9.763181
2022-08-16T08:31:02.465Z,9.763228
2022-08-16T08:31:51.360Z,9.763052
2022-08-16T08:32:59.837Z,9.762872
2022-08-16T08:33:51.376Z,9.762733
2022-08-16T08:34:49.418Z,9.762582
2022-08-16T08:35:49.412Z,9.762686
2022-08-16T08:36:49.411Z,9.762485
2022-08-16T08:37:55.579Z,9.762564
2022-08-16T08:38:50.432Z,9.762688
2022-08-16T08:39:54.804Z,9.762659
2022-08-16T08:40:50.338Z,9.762669
2022-08-16T08:41:50.417Z,9.762711
2022-08-16T08:42:49.721Z,9.762781
2022-08-16T08:43:50.480Z,9.762692
2022-08-16T08:44:49.304Z,9.762772
2022-08-16T08:45:52.756Z,9.762750
2022-08-16T08:47:00.648Z,9.762968
2022-08-16T08:47:54.241Z,9.763131
2022-08-16T08:48:59.529Z,9.762979
2022-08-16T08:49:55.492Z,9.762960
2022-08-16T08:50:50.398Z,9.763095
2022-08-16T08:51:49.278Z,9.762804
2022-08-16T08:52:49.427Z,9.762877
2022-08-16T08:53:58.032Z,9.762728
2022-08-16T08:54:50.571Z,9.762793
2022-08-16T08:55:49.224Z,9.762560
2022-08-16T08:56:50.239Z,9.762716
2022-08-16T08:57:49.215Z,9.762769
2022-08-16T08:58:53.906Z,9.762729
2022-08-16T08:59:50.199Z,9.762782
2022-08-16T09:00:51.444Z,9.762758
2022-08-16T09:01:58.148Z,9.762763
2022-08-16T09:02:52.277Z,9.762770
2022-08-16T09:03:49.315Z,9.762838
2022-08-16T09:04:49.152Z,9.762683
2022-08-16T09:05:51.512Z,9.762616
2022-08-16T09:06:50.148Z,9.762541
2022-08-16T09:08:01.493Z,9.762826
2022-08-16T09:08:50.101Z,9.762708
2022-08-16T09:09:49.105Z,9.762766
2022-08-16T09:10:59.174Z,9.763574
2022-08-16T09:12:03.995Z,9.762947
2022-08-16T09:12:51.344Z,9.762919
2022-08-16T09:13:49.057Z,9.762781
2022-08-16T09:14:50.899Z,9.762761
2022-08-16T09:15:49.060Z,9.762795
2022-08-16T09:17:03.893Z,9.762752
2022-08-16T09:17:52.231Z,9.762818
2022-08-16T09:18:54.875Z,9.762826
2022-08-16T09:19:55.103Z,9.762786
2022-08-16T09:20:59.625Z,9.762894
2022-08-16T09:21:55.994Z,9.762899
2022-08-16T09:22:51.349Z,9.762844
2022-08-16T09:23:48.965Z,9.762785
2022-08-16T09:24:53.340Z,9.762845
2022-08-16T09:25:48.938Z,9.762772
2022-08-16T09:26:49.100Z,9.762712
2022-08-16T09:27:57.922Z,9.762690
2022-08-16T09:29:14.475Z,9.762779
2022-08-16T09:30:00.082Z,9.762801
2022-08-16T09:30:49.899Z,9.762802
2022-08-16T09:31:53.625Z,9.762815
2022-08-16T09:32:49.013Z,9.762765
2022-08-16T09:33:52.052Z,9.762752
2022-08-16T09:34:48.858Z,9.762922
2022-08-16T09:35:53.216Z,9.762508
2022-08-16T09:36:48.855Z,9.762316
2022-08-16T09:38:01.118Z,9.762489
2022-08-16T09:38:49.832Z,9.762491
2022-08-16T09:39:50.430Z,9.762405
2022-08-16T09:40:49.842Z,9.762441
2022-08-16T09:41:53.339Z,9.762505
2022-08-16T09:42:56.078Z,9.762477
2022-08-16T09:43:59.943Z,9.762501
2022-08-16T09:45:12.490Z,9.762499
2022-08-16T09:45:49.777Z,9.762788
2022-08-16T09:46:49.975Z,9.762918
2022-08-16T09:47:56.986Z,9.762757
2022-08-16T09:48:51.016Z,9.762613
2022-08-16T09:49:50.985Z,9.762774
2022-08-16T09:50:48.714Z,9.762751
2022-08-16T09:51:49.637Z,9.762498
2022-08-16T09:52:48.928Z,9.762646
2022-08-16T09:53:53.771Z,9.762885
2022-08-16T09:54:49.670Z,9.762786
2022-08-16T09:55:49.091Z,9.762690
2022-08-16T09:56:52.300Z,9.762900
2022-08-16T09:57:53.070Z,9.762850
2022-08-16T09:59:05.689Z,9.762810
2022-08-16T09:59:56.166Z,9.762733
2022-08-16T10:00:49.650Z,9.763030
2022-08-16T10:01:48.631Z,9.762675
2022-08-16T10:02:48.649Z,9.762733
2022-08-16T10:04:02.386Z,9.762729
2022-08-16T10:04:54.596Z,9.762779
2022-08-16T10:05:49.605Z,9.762812
2022-08-16T10:06:48.698Z,9.762790
2022-08-16T10:07:48.622Z,9.762792
2022-08-16T10:08:55.411Z,9.762931
2022-08-16T10:09:55.115Z,9.762863
2022-08-16T10:10:49.532Z,9.762774
2022-08-16T10:11:49.940Z,9.762866
2022-08-16T10:12:55.576Z,9.762907
2022-08-16T10:13:49.504Z,9.762937
2022-08-16T10:14:48.510Z,9.762657
2022-08-16T10:15:55.636Z,9.762692
2022-08-16T10:16:49.458Z,9.762765
2022-08-16T10:18:00.331Z,9.762736
2022-08-16T10:19:00.462Z,9.762759
2022-08-16T10:19:50.376Z,9.762741
2022-08-16T10:20:48.426Z,9.762734
2022-08-16T10:21:56.340Z,9.762758
2022-08-16T10:22:54.156Z,9.762877
2022-08-16T10:23:49.392Z,9.762806
2022-08-16T10:24:56.020Z,9.762728
2022-08-16T10:27:16.244Z,9.762755
2022-08-16T10:27:17.214Z,9.762894
2022-08-16T10:27:53.259Z,9.762686
2022-08-16T10:28:50.509Z,9.762589
2022-08-16T10:30:00.228Z,9.762744
2022-08-16T10:30:56.320Z,9.762683
2022-08-16T10:31:53.266Z,9.762834
2022-08-16T10:32:48.333Z,9.763294
2022-08-16T10:33:48.327Z,9.763318
2022-08-16T10:34:48.312Z,9.762953
2022-08-16T10:35:48.294Z,9.763632
2022-08-16T10:36:48.289Z,9.763235
2022-08-16T10:37:49.458Z,9.765064
2022-08-16T10:38:48.263Z,9.764549
2022-08-16T10:39:48.261Z,9.763650
2022-08-16T10:40:48.251Z,9.762885
2022-08-16T10:41:48.298Z,9.762214
2022-08-16T10:42:48.395Z,9.762467
2022-08-16T10:43:48.209Z,9.762608
2022-08-16T10:44:53.969Z,9.762805
2022-08-16T10:46:00.555Z,9.762789
2022-08-16T10:46:49.187Z,9.762749
2022-08-16T10:47:48.296Z,9.762795
2022-08-16T10:48:49.160Z,9.762913
2022-08-16T10:49:48.183Z,9.762931
2022-08-16T10:50:48.166Z,9.762971
2022-08-16T10:52:02.503Z,9.762976
2022-08-16T10:52:50.239Z,9.762839
2022-08-16T10:53:48.116Z,9.762814
2022-08-16T10:55:57.432Z,9.762793
2022-08-16T10:56:52.290Z,9.762882
2022-08-16T10:57:49.262Z,9.762766
2022-08-16T10:58:48.061Z,9.762644
2022-08-16T10:59:56.103Z,9.762953
2022-08-16T11:00:53.176Z,9.762857
2022-08-16T11:02:58.780Z,9.762768
2022-08-16T11:03:54.034Z,9.762210
2022-08-16T11:05:05.970Z,9.762318
2022-08-16T11:06:06.411Z,9.762501
2022-08-16T11:07:52.300Z,9.762810
2022-08-16T11:08:48.053Z,9.762827
2022-08-16T11:09:47.989Z,9.762823
2022-08-16T11:11:07.025Z,9.762834
2022-08-16T11:12:52.795Z,9.762892
2022-08-16T11:14:11.038Z,9.762478
2022-08-16T11:15:19.679Z,9.762794
2022-08-16T11:15:55.811Z,9.762793
2022-08-16T11:17:10.461Z,9.762906
2022-08-16T11:18:47.863Z,9.762886
2022-08-16T11:19:06.409Z,9.762856
2022-08-16T11:20:50.563Z,9.762800
2022-08-16T11:22:49.892Z,9.762847
2022-08-16T11:23:58.274Z,9.762714
2022-08-16T11:25:11.779Z,9.762923
2022-08-16T11:26:20.615Z,9.762875
2022-08-16T11:27:18.479Z,9.762878
2022-08-16T11:27:50.149Z,9.762907
2022-08-16T11:29:49.828Z,9.762855
2022-08-16T11:30:50.676Z,9.763046
2022-08-16T11:31:54.243Z,9.762706
2022-08-16T11:32:48.976Z,9.762792
2022-08-16T11:33:55.479Z,9.762574
2022-08-16T11:35:14.082Z,9.762877
2022-08-16T11:36:59.309Z,9.762877
2022-08-16T11:38:57.299Z,9.762729
2022-08-16T11:39:48.782Z,9.762767
2022-08-16T11:40:52.684Z,9.762912
2022-08-16T11:41:49.355Z,9.762847
2022-08-16T11:42:48.758Z,9.762616
2022-08-16T11:43:47.688Z,9.762774
2022-08-16T11:44:56.144Z,9.763179
2022-08-16T11:45:53.629Z,9.762903
2022-08-16T11:46:48.683Z,9.762925
2022-08-16T11:47:47.896Z,9.762836
2022-08-16T11:48:47.650Z,9.762789
2022-08-16T11:49:47.633Z,9.762697
2022-08-16T11:50:47.613Z,9.762614
2022-08-16T11:51:47.616Z,9.762830
2022-08-16T11:52:47.622Z,9.762763